sensor_id;sensor_type;location;lat;lon;timestamp;pressure;altitude;pressure_sealevel;temperature;humidity
75045;BME280;63614;56.026;35.960;2023-12-28T00:00:47;98360.63;;;-0.50;74.98
75045;BME280;63614;56.026;35.960;2023-12-28T00:03:13;98362.94;;;-0.57;75.38
75045;BME280;63614;56.026;35.960;2023-12-28T00:05:39;98365.81;;;-0.70;75.64
75045;BME280;63614;56.026;35.960;2023-12-28T00:08:05;98372.19;;;-0.84;75.90
75045;BME280;63614;56.026;35.960;2023-12-28T00:10:31;98373.06;;;-0.65;75.48
75045;BME280;63614;56.026;35.960;2023-12-28T00:12:57;98372.16;;;-0.46;74.62
75045;BME280;63614;56.026;35.960;2023-12-28T00:15:24;98381.44;;;-0.45;74.52
75045;BME280;63614;56.026;35.960;2023-12-28T00:17:49;98377.84;;;-0.52;74.17
75045;BME280;63614;56.026;35.960;2023-12-28T00:20:16;98372.00;;;-0.73;75.03
75045;BME280;63614;56.026;35.960;2023-12-28T00:22:42;98383.00;;;-0.72;75.27
75045;BME280;63614;56.026;35.960;2023-12-28T00:25:08;98386.63;;;-0.65;75.11
75045;BME280;63614;56.026;35.960;2023-12-28T00:27:34;98383.75;;;-0.52;75.06
75045;BME280;63614;56.026;35.960;2023-12-28T00:30:05;98381.94;;;-0.42;74.43
75045;BME280;63614;56.026;35.960;2023-12-28T00:32:32;98393.28;;;-0.44;74.30
75045;BME280;63614;56.026;35.960;2023-12-28T00:34:58;98389.00;;;-0.26;74.13
75045;BME280;63614;56.026;35.960;2023-12-28T00:37:25;98393.69;;;-0.21;73.99
75045;BME280;63614;56.026;35.960;2023-12-28T00:39:51;98392.78;;;-0.30;73.81
75045;BME280;63614;56.026;35.960;2023-12-28T00:42:17;98392.38;;;-0.25;74.14
75045;BME280;63614;56.026;35.960;2023-12-28T00:44:44;98389.28;;;-0.29;74.03
75045;BME280;63614;56.026;35.960;2023-12-28T00:47:10;98390.03;;;-0.19;73.80
75045;BME280;63614;56.026;35.960;2023-12-28T00:49:37;98385.28;;;-0.31;74.08
75045;BME280;63614;56.026;35.960;2023-12-28T00:52:03;98393.38;;;-0.36;74.50
75045;BME280;63614;56.026;35.960;2023-12-28T00:54:30;98403.38;;;-0.25;74.35
75045;BME280;63614;56.026;35.960;2023-12-28T00:56:56;98396.63;;;-0.16;73.75
75045;BME280;63614;56.026;35.960;2023-12-28T00:59:23;98402.75;;;-0.27;73.98
75045;BME280;63614;56.026;35.960;2023-12-28T01:01:49;98407.28;;;-0.21;73.61
75045;BME280;63614;56.026;35.960;2023-12-28T01:04:14;98412.22;;;-0.47;74.17
75045;BME280;63614;56.026;35.960;2023-12-28T01:06:41;98412.88;;;-0.45;74.54
75045;BME280;63614;56.026;35.960;2023-12-28T01:09:07;98414.41;;;-0.24;73.96
75045;BME280;63614;56.026;35.960;2023-12-28T01:11:33;98402.59;;;-0.25;73.28
75045;BME280;63614;56.026;35.960;2023-12-28T01:13:59;98408.78;;;-0.28;74.00
75045;BME280;63614;56.026;35.960;2023-12-28T01:16:25;98410.78;;;-0.22;73.21
75045;BME280;63614;56.026;35.960;2023-12-28T01:18:51;98403.91;;;-0.21;73.71
75045;BME280;63614;56.026;35.960;2023-12-28T01:21:16;98408.22;;;-0.22;73.47
75045;BME280;63614;56.026;35.960;2023-12-28T01:23:43;98403.47;;;-0.16;73.05
75045;BME280;63614;56.026;35.960;2023-12-28T01:26:14;98416.88;;;-0.32;73.77
75045;BME280;63614;56.026;35.960;2023-12-28T01:28:41;98415.78;;;-0.67;74.38
75045;BME280;63614;56.026;35.960;2023-12-28T01:31:06;98415.47;;;-0.55;74.45
75045;BME280;63614;56.026;35.960;2023-12-28T01:33:32;98417.47;;;-0.48;74.43
75045;BME280;63614;56.026;35.960;2023-12-28T01:35:58;98421.84;;;-0.31;74.15
75045;BME280;63614;56.026;35.960;2023-12-28T01:38:24;98422.50;;;-0.29;73.84
75045;BME280;63614;56.026;35.960;2023-12-28T01:40:50;98424.13;;;-0.28;73.58
75045;BME280;63614;56.026;35.960;2023-12-28T01:43:16;98430.97;;;-0.28;73.52
75045;BME280;63614;56.026;35.960;2023-12-28T01:45:41;98426.00;;;-0.30;73.86
75045;BME280;63614;56.026;35.960;2023-12-28T01:48:08;98432.75;;;-0.39;74.04
75045;BME280;63614;56.026;35.960;2023-12-28T01:50:34;98429.88;;;-0.26;74.03
75045;BME280;63614;56.026;35.960;2023-12-28T01:53:01;98433.88;;;-0.41;74.45
75045;BME280;63614;56.026;35.960;2023-12-28T01:55:30;98436.66;;;-0.34;73.72
75045;BME280;63614;56.026;35.960;2023-12-28T01:57:58;98435.81;;;-0.25;73.82
75045;BME280;63614;56.026;35.960;2023-12-28T02:00:24;98436.25;;;-0.30;73.55
75045;BME280;63614;56.026;35.960;2023-12-28T02:02:50;98441.88;;;-0.26;73.61
75045;BME280;63614;56.026;35.960;2023-12-28T02:05:17;98444.63;;;-0.47;74.20
75045;BME280;63614;56.026;35.960;2023-12-28T02:07:44;98449.75;;;-0.47;74.41
75045;BME280;63614;56.026;35.960;2023-12-28T02:10:10;98443.97;;;-0.49;74.34
75045;BME280;63614;56.026;35.960;2023-12-28T02:12:36;98450.22;;;-0.71;75.12
75045;BME280;63614;56.026;35.960;2023-12-28T02:15:03;98459.22;;;-0.67;74.92
75045;BME280;63614;56.026;35.960;2023-12-28T02:18:05;98458.47;;;-0.87;75.43
75045;BME280;63614;56.026;35.960;2023-12-28T02:20:36;98453.50;;;-0.89;76.17
75045;BME280;63614;56.026;35.960;2023-12-28T02:23:02;98471.09;;;-0.96;76.24
75045;BME280;63614;56.026;35.960;2023-12-28T02:25:28;98473.34;;;-0.93;76.01
75045;BME280;63614;56.026;35.960;2023-12-28T02:27:54;98475.66;;;-0.80;76.20
75045;BME280;63614;56.026;35.960;2023-12-28T02:30:22;98479.78;;;-0.69;75.77
75045;BME280;63614;56.026;35.960;2023-12-28T02:35:33;98480.31;;;-0.75;75.26
75045;BME280;63614;56.026;35.960;2023-12-28T02:38:05;98481.97;;;-0.94;76.47
75045;BME280;63614;56.026;35.960;2023-12-28T02:40:37;98478.22;;;-0.99;76.44
75045;BME280;63614;56.026;35.960;2023-12-28T02:43:05;98489.22;;;-0.89;76.49
75045;BME280;63614;56.026;35.960;2023-12-28T02:45:32;98492.47;;;-0.97;76.26
75045;BME280;63614;56.026;35.960;2023-12-28T02:47:59;98484.78;;;-0.87;76.47
75045;BME280;63614;56.026;35.960;2023-12-28T02:50:24;98490.81;;;-0.68;75.95
75045;BME280;63614;56.026;35.960;2023-12-28T02:52:50;98490.16;;;-0.80;75.53
75045;BME280;63614;56.026;35.960;2023-12-28T02:55:17;98497.00;;;-0.81;75.87
75045;BME280;63614;56.026;35.960;2023-12-28T02:57:44;98491.34;;;-0.65;75.53
75045;BME280;63614;56.026;35.960;2023-12-28T03:00:10;98499.00;;;-0.65;75.35
75045;BME280;63614;56.026;35.960;2023-12-28T03:02:37;98501.00;;;-0.59;75.18
75045;BME280;63614;56.026;35.960;2023-12-28T03:05:04;98514.44;;;-0.57;75.11
75045;BME280;63614;56.026;35.960;2023-12-28T03:07:34;98520.78;;;-0.70;75.20
75045;BME280;63614;56.026;35.960;2023-12-28T03:10:01;98515.81;;;-0.82;75.21
75045;BME280;63614;56.026;35.960;2023-12-28T03:12:30;98519.47;;;-0.94;76.17
75045;BME280;63614;56.026;35.960;2023-12-28T03:14:56;98515.97;;;-1.03;76.59
75045;BME280;63614;56.026;35.960;2023-12-28T03:17:22;98514.91;;;-1.00;76.51
75045;BME280;63614;56.026;35.960;2023-12-28T03:19:48;98505.88;;;-0.85;76.19
75045;BME280;63614;56.026;35.960;2023-12-28T03:22:14;98513.53;;;-0.65;75.76
75045;BME280;63614;56.026;35.960;2023-12-28T03:24:41;98518.06;;;-0.49;75.15
75045;BME280;63614;56.026;35.960;2023-12-28T03:27:07;98523.16;;;-0.40;75.00
75045;BME280;63614;56.026;35.960;2023-12-28T03:29:33;98523.41;;;-0.43;74.71
75045;BME280;63614;56.026;35.960;2023-12-28T03:32:00;98522.38;;;-0.60;75.12
75045;BME280;63614;56.026;35.960;2023-12-28T03:34:27;98525.50;;;-0.76;76.10
75045;BME280;63614;56.026;35.960;2023-12-28T03:36:55;98530.97;;;-0.70;75.85
75045;BME280;63614;56.026;35.960;2023-12-28T03:39:22;98537.47;;;-0.76;75.82
75045;BME280;63614;56.026;35.960;2023-12-28T03:41:49;98535.19;;;-0.89;76.03
75045;BME280;63614;56.026;35.960;2023-12-28T03:44:14;98543.22;;;-0.74;76.39
75045;BME280;63614;56.026;35.960;2023-12-28T03:46:41;98540.38;;;-0.61;75.50
75045;BME280;63614;56.026;35.960;2023-12-28T03:49:07;98544.56;;;-0.60;75.26
75045;BME280;63614;56.026;35.960;2023-12-28T03:51:33;98548.16;;;-0.43;74.82
75045;BME280;63614;56.026;35.960;2023-12-28T03:53:59;98552.59;;;-0.45;74.43
75045;BME280;63614;56.026;35.960;2023-12-28T03:56:26;98548.56;;;-0.38;73.92
75045;BME280;63614;56.026;35.960;2023-12-28T03:58:54;98547.91;;;-0.50;74.67
75045;BME280;63614;56.026;35.960;2023-12-28T04:01:21;98555.06;;;-0.63;75.20
75045;BME280;63614;56.026;35.960;2023-12-28T04:03:49;98559.63;;;-0.57;75.24
75045;BME280;63614;56.026;35.960;2023-12-28T04:06:16;98554.38;;;-0.56;74.84
75045;BME280;63614;56.026;35.960;2023-12-28T04:08:42;98561.34;;;-0.48;74.81
75045;BME280;63614;56.026;35.960;2023-12-28T04:11:08;98568.59;;;-0.53;74.75
75045;BME280;63614;56.026;35.960;2023-12-28T04:13:35;98569.44;;;-0.62;75.30
75045;BME280;63614;56.026;35.960;2023-12-28T04:16:02;98569.03;;;-0.67;74.98
75045;BME280;63614;56.026;35.960;2023-12-28T04:18:28;98576.97;;;-0.80;75.89
75045;BME280;63614;56.026;35.960;2023-12-28T04:20:54;98578.72;;;-0.71;75.46
75045;BME280;63614;56.026;35.960;2023-12-28T04:23:20;98579.63;;;-0.72;75.63
75045;BME280;63614;56.026;35.960;2023-12-28T04:25:47;98580.59;;;-0.73;75.31
75045;BME280;63614;56.026;35.960;2023-12-28T04:28:13;98585.31;;;-0.68;75.20
75045;BME280;63614;56.026;35.960;2023-12-28T04:30:39;98589.72;;;-0.70;75.79
75045;BME280;63614;56.026;35.960;2023-12-28T04:33:05;98583.28;;;-0.94;76.45
75045;BME280;63614;56.026;35.960;2023-12-28T04:35:30;98597.25;;;-0.88;76.40
75045;BME280;63614;56.026;35.960;2023-12-28T04:37:57;98597.13;;;-0.87;76.39
75045;BME280;63614;56.026;35.960;2023-12-28T04:40:23;98602.09;;;-0.85;76.24
75045;BME280;63614;56.026;35.960;2023-12-28T04:42:49;98612.97;;;-0.93;76.72
75045;BME280;63614;56.026;35.960;2023-12-28T04:45:15;98609.47;;;-0.82;76.34
75045;BME280;63614;56.026;35.960;2023-12-28T04:47:41;98620.50;;;-0.82;75.90
75045;BME280;63614;56.026;35.960;2023-12-28T04:50:09;98613.38;;;-0.88;76.28
75045;BME280;63614;56.026;35.960;2023-12-28T04:52:35;98613.09;;;-0.95;76.80
75045;BME280;63614;56.026;35.960;2023-12-28T04:55:01;98611.25;;;-0.83;76.40
75045;BME280;63614;56.026;35.960;2023-12-28T04:57:27;98618.88;;;-0.93;76.23
75045;BME280;63614;56.026;35.960;2023-12-28T04:59:54;98613.09;;;-0.85;76.02
75045;BME280;63614;56.026;35.960;2023-12-28T05:02:20;98626.53;;;-0.93;76.10
75045;BME280;63614;56.026;35.960;2023-12-28T05:04:46;98618.19;;;-0.95;76.37
75045;BME280;63614;56.026;35.960;2023-12-28T05:07:12;98617.41;;;-0.95;76.42
75045;BME280;63614;56.026;35.960;2023-12-28T05:09:39;98618.34;;;-0.96;76.25
75045;BME280;63614;56.026;35.960;2023-12-28T05:12:05;98630.69;;;-1.11;76.62
75045;BME280;63614;56.026;35.960;2023-12-28T05:14:31;98630.53;;;-1.10;77.13
75045;BME280;63614;56.026;35.960;2023-12-28T05:16:57;98634.03;;;-1.01;76.69
75045;BME280;63614;56.026;35.960;2023-12-28T05:19:23;98635.00;;;-1.02;76.73
75045;BME280;63614;56.026;35.960;2023-12-28T05:21:49;98638.22;;;-1.00;76.54
75045;BME280;63614;56.026;35.960;2023-12-28T05:24:15;98650.06;;;-0.99;76.59
75045;BME280;63614;56.026;35.960;2023-12-28T05:26:41;98648.53;;;-1.11;76.39
75045;BME280;63614;56.026;35.960;2023-12-28T05:29:07;98649.06;;;-1.17;76.55
75045;BME280;63614;56.026;35.960;2023-12-28T05:31:32;98657.81;;;-1.10;76.66
75045;BME280;63614;56.026;35.960;2023-12-28T05:33:58;98666.50;;;-1.22;76.92
75045;BME280;63614;56.026;35.960;2023-12-28T05:36:24;98670.28;;;-1.17;76.79
75045;BME280;63614;56.026;35.960;2023-12-28T05:38:51;98671.06;;;-1.26;76.74
75045;BME280;63614;56.026;35.960;2023-12-28T05:41:17;98668.41;;;-1.24;76.97
75045;BME280;63614;56.026;35.960;2023-12-28T05:43:43;98683.41;;;-1.21;77.06
75045;BME280;63614;56.026;35.960;2023-12-28T05:46:09;98681.28;;;-1.26;76.81
75045;BME280;63614;56.026;35.960;2023-12-28T05:48:35;98690.59;;;-1.46;76.82
75045;BME280;63614;56.026;35.960;2023-12-28T05:51:01;98691.47;;;-1.57;77.58
75045;BME280;63614;56.026;35.960;2023-12-28T05:53:27;98693.38;;;-1.49;77.38
75045;BME280;63614;56.026;35.960;2023-12-28T05:55:53;98688.97;;;-1.47;77.52
75045;BME280;63614;56.026;35.960;2023-12-28T05:58:19;98693.56;;;-1.41;77.19
75045;BME280;63614;56.026;35.960;2023-12-28T06:00:45;98694.38;;;-1.40;77.00
75045;BME280;63614;56.026;35.960;2023-12-28T06:03:14;98701.09;;;-1.39;77.20
75045;BME280;63614;56.026;35.960;2023-12-28T06:05:41;98700.69;;;-1.35;76.82
75045;BME280;63614;56.026;35.960;2023-12-28T06:08:07;98708.06;;;-1.41;76.85
75045;BME280;63614;56.026;35.960;2023-12-28T06:10:33;98714.72;;;-1.50;77.04
75045;BME280;63614;56.026;35.960;2023-12-28T06:12:59;98720.44;;;-1.37;76.86
75045;BME280;63614;56.026;35.960;2023-12-28T06:15:25;98719.19;;;-1.42;76.95
75045;BME280;63614;56.026;35.960;2023-12-28T06:17:51;98723.25;;;-1.40;76.97
75045;BME280;63614;56.026;35.960;2023-12-28T06:20:17;98726.59;;;-1.39;76.68
75045;BME280;63614;56.026;35.960;2023-12-28T06:22:45;98731.94;;;-1.42;77.07
75045;BME280;63614;56.026;35.960;2023-12-28T06:25:14;98740.75;;;-1.25;76.55
75045;BME280;63614;56.026;35.960;2023-12-28T06:27:40;98743.03;;;-1.32;76.33
75045;BME280;63614;56.026;35.960;2023-12-28T06:30:07;98760.31;;;-1.36;76.47
75045;BME280;63614;56.026;35.960;2023-12-28T06:32:33;98763.81;;;-1.37;76.45
75045;BME280;63614;56.026;35.960;2023-12-28T06:34:59;98752.09;;;-1.39;76.88
75045;BME280;63614;56.026;35.960;2023-12-28T06:37:24;98769.59;;;-1.35;76.71
75045;BME280;63614;56.026;35.960;2023-12-28T06:39:51;98771.47;;;-1.37;76.84
75045;BME280;63614;56.026;35.960;2023-12-28T06:42:17;98772.94;;;-1.55;77.36
75045;BME280;63614;56.026;35.960;2023-12-28T06:44:43;98784.53;;;-1.51;77.75
75045;BME280;63614;56.026;35.960;2023-12-28T06:47:08;98770.94;;;-1.52;77.43
75045;BME280;63614;56.026;35.960;2023-12-28T06:49:34;98781.69;;;-1.58;77.93
75045;BME280;63614;56.026;35.960;2023-12-28T06:52:00;98787.94;;;-1.62;78.08
75045;BME280;63614;56.026;35.960;2023-12-28T06:54:26;98789.25;;;-1.68;77.89
75045;BME280;63614;56.026;35.960;2023-12-28T06:56:51;98798.50;;;-1.46;77.71
75045;BME280;63614;56.026;35.960;2023-12-28T06:59:18;98799.13;;;-1.53;77.74
75045;BME280;63614;56.026;35.960;2023-12-28T07:01:43;98799.91;;;-1.41;77.38
75045;BME280;63614;56.026;35.960;2023-12-28T07:04:13;98797.97;;;-1.49;77.30
75045;BME280;63614;56.026;35.960;2023-12-28T07:06:39;98811.06;;;-1.33;77.47
75045;BME280;63614;56.026;35.960;2023-12-28T07:09:05;98813.44;;;-1.41;77.69
75045;BME280;63614;56.026;35.960;2023-12-28T07:11:31;98821.28;;;-1.33;77.39
75045;BME280;63614;56.026;35.960;2023-12-28T07:13:57;98823.66;;;-1.41;77.30
75045;BME280;63614;56.026;35.960;2023-12-28T07:16:23;98827.63;;;-1.27;77.26
75045;BME280;63614;56.026;35.960;2023-12-28T07:18:49;98831.72;;;-1.36;77.46
75045;BME280;63614;56.026;35.960;2023-12-28T07:21:15;98827.63;;;-1.27;77.19
75045;BME280;63614;56.026;35.960;2023-12-28T07:23:41;98839.16;;;-1.12;76.78
75045;BME280;63614;56.026;35.960;2023-12-28T07:26:08;98830.50;;;-1.20;77.20
75045;BME280;63614;56.026;35.960;2023-12-28T07:28:34;98838.69;;;-1.17;77.15
75045;BME280;63614;56.026;35.960;2023-12-28T07:31:00;98843.59;;;-1.04;76.94
75045;BME280;63614;56.026;35.960;2023-12-28T07:33:26;98842.81;;;-1.04;77.02
75045;BME280;63614;56.026;35.960;2023-12-28T07:35:52;98843.31;;;-1.11;77.23
75045;BME280;63614;56.026;35.960;2023-12-28T07:38:18;98855.50;;;-1.14;77.42
75045;BME280;63614;56.026;35.960;2023-12-28T07:40:44;98846.69;;;-1.10;77.24
75045;BME280;63614;56.026;35.960;2023-12-28T07:43:10;98859.22;;;-1.18;77.90
75045;BME280;63614;56.026;35.960;2023-12-28T07:45:36;98848.69;;;-1.04;77.93
75045;BME280;63614;56.026;35.960;2023-12-28T07:48:04;98851.72;;;-0.99;77.45
75045;BME280;63614;56.026;35.960;2023-12-28T07:50:30;98863.78;;;-1.01;77.21
75045;BME280;63614;56.026;35.960;2023-12-28T07:52:56;98864.91;;;-0.94;77.28
75045;BME280;63614;56.026;35.960;2023-12-28T07:55:22;98862.25;;;-0.82;76.91
75045;BME280;63614;56.026;35.960;2023-12-28T07:57:48;98872.84;;;-0.87;76.58
75045;BME280;63614;56.026;35.960;2023-12-28T08:00:14;98879.78;;;-0.99;76.64
75045;BME280;63614;56.026;35.960;2023-12-28T08:02:40;98877.66;;;-0.94;76.95
75045;BME280;63614;56.026;35.960;2023-12-28T08:05:06;98872.63;;;-1.05;77.41
75045;BME280;63614;56.026;35.960;2023-12-28T08:07:33;98876.16;;;-0.96;77.39
75045;BME280;63614;56.026;35.960;2023-12-28T08:09:58;98874.34;;;-0.84;76.86
75045;BME280;63614;56.026;35.960;2023-12-28T08:12:24;98876.44;;;-0.89;77.16
75045;BME280;63614;56.026;35.960;2023-12-28T08:14:54;98874.47;;;-0.86;77.06
75045;BME280;63614;56.026;35.960;2023-12-28T08:17:20;98880.19;;;-0.73;76.66
75045;BME280;63614;56.026;35.960;2023-12-28T08:19:46;98894.66;;;-0.52;76.19
75045;BME280;63614;56.026;35.960;2023-12-28T08:22:12;98892.22;;;-0.53;75.59
75045;BME280;63614;56.026;35.960;2023-12-28T08:24:37;98900.72;;;-0.43;75.23
75045;BME280;63614;56.026;35.960;2023-12-28T08:27:03;98891.63;;;-0.67;75.70
75045;BME280;63614;56.026;35.960;2023-12-28T08:29:29;98894.53;;;-0.50;75.46
75045;BME280;63614;56.026;35.960;2023-12-28T08:31:55;98899.09;;;-0.54;75.13
75045;BME280;63614;56.026;35.960;2023-12-28T08:34:21;98900.13;;;-0.57;75.04
75045;BME280;63614;56.026;35.960;2023-12-28T08:36:47;98904.88;;;-0.52;75.03
75045;BME280;63614;56.026;35.960;2023-12-28T08:39:13;98909.06;;;-0.51;75.42
75045;BME280;63614;56.026;35.960;2023-12-28T08:41:39;98904.28;;;-0.65;75.54
75045;BME280;63614;56.026;35.960;2023-12-28T08:44:05;98906.31;;;-0.59;75.20
75045;BME280;63614;56.026;35.960;2023-12-28T08:46:31;98908.09;;;-0.81;74.69
75045;BME280;63614;56.026;35.960;2023-12-28T08:48:57;98909.66;;;-0.89;74.25
75045;BME280;63614;56.026;35.960;2023-12-28T08:51:23;98903.75;;;-0.90;73.84
75045;BME280;63614;56.026;35.960;2023-12-28T08:53:49;98909.53;;;-0.88;73.60
75045;BME280;63614;56.026;35.960;2023-12-28T08:56:20;98900.00;;;-0.86;72.59
75045;BME280;63614;56.026;35.960;2023-12-28T08:58:46;98898.28;;;-1.06;72.93
75045;BME280;63614;56.026;35.960;2023-12-28T09:01:23;98916.06;;;-0.95;72.23
75045;BME280;63614;56.026;35.960;2023-12-28T09:03:53;98928.34;;;-0.89;71.71
75045;BME280;63614;56.026;35.960;2023-12-28T09:06:20;98927.75;;;-0.93;70.83
75045;BME280;63614;56.026;35.960;2023-12-28T09:08:51;98929.75;;;-0.96;70.26
75045;BME280;63614;56.026;35.960;2023-12-28T09:11:17;98932.84;;;-0.81;69.47
75045;BME280;63614;56.026;35.960;2023-12-28T09:13:45;98945.31;;;-0.99;69.00
75045;BME280;63614;56.026;35.960;2023-12-28T09:16:12;98947.81;;;-1.09;68.90
75045;BME280;63614;56.026;35.960;2023-12-28T09:18:38;98942.91;;;-1.22;67.56
75045;BME280;63614;56.026;35.960;2023-12-28T09:21:06;98946.47;;;-1.46;67.37
75045;BME280;63614;56.026;35.960;2023-12-28T09:23:32;98950.78;;;-1.25;67.31
75045;BME280;63614;56.026;35.960;2023-12-28T09:25:59;98944.53;;;-1.21;66.71
75045;BME280;63614;56.026;35.960;2023-12-28T09:28:25;98945.69;;;-1.04;66.14
75045;BME280;63614;56.026;35.960;2023-12-28T09:30:51;98951.19;;;-1.08;66.23
75045;BME280;63614;56.026;35.960;2023-12-28T09:33:17;98946.16;;;-0.99;65.65
75045;BME280;63614;56.026;35.960;2023-12-28T09:35:44;98951.38;;;-1.00;64.71
75045;BME280;63614;56.026;35.960;2023-12-28T09:38:09;98939.78;;;-1.04;65.05
75045;BME280;63614;56.026;35.960;2023-12-28T09:40:35;98943.56;;;-1.20;65.49
75045;BME280;63614;56.026;35.960;2023-12-28T09:43:13;98948.44;;;-1.17;65.29
75045;BME280;63614;56.026;35.960;2023-12-28T09:45:41;98939.53;;;-1.43;64.96
75045;BME280;63614;56.026;35.960;2023-12-28T09:48:06;98953.56;;;-1.49;65.39
75045;BME280;63614;56.026;35.960;2023-12-28T09:50:32;98953.72;;;-1.62;65.47
75045;BME280;63614;56.026;35.960;2023-12-28T09:52:58;98957.72;;;-1.48;65.52
75045;BME280;63614;56.026;35.960;2023-12-28T09:55:24;98942.63;;;-1.40;65.24
75045;BME280;63614;56.026;35.960;2023-12-28T09:57:51;98946.84;;;-1.61;64.63
75045;BME280;63614;56.026;35.960;2023-12-28T10:00:17;98938.19;;;-1.70;64.99
75045;BME280;63614;56.026;35.960;2023-12-28T10:02:44;98947.59;;;-1.71;65.63
75045;BME280;63614;56.026;35.960;2023-12-28T10:05:16;98951.91;;;-1.50;65.14
75045;BME280;63614;56.026;35.960;2023-12-28T10:07:44;98946.47;;;-1.46;64.56
75045;BME280;63614;56.026;35.960;2023-12-28T10:10:10;98950.16;;;-1.38;64.54
75045;BME280;63614;56.026;35.960;2023-12-28T10:12:40;98939.94;;;-1.38;64.36
75045;BME280;63614;56.026;35.960;2023-12-28T10:15:06;98949.44;;;-1.08;64.15
75045;BME280;63614;56.026;35.960;2023-12-28T10:17:33;98944.91;;;-1.04;63.84
75045;BME280;63614;56.026;35.960;2023-12-28T10:20:01;98946.97;;;-0.98;63.71
75045;BME280;63614;56.026;35.960;2023-12-28T10:22:38;98944.78;;;-1.24;64.59
75045;BME280;63614;56.026;35.960;2023-12-28T10:25:04;98936.09;;;-1.33;64.06
75045;BME280;63614;56.026;35.960;2023-12-28T10:27:31;98939.22;;;-1.29;64.26
75045;BME280;63614;56.026;35.960;2023-12-28T10:29:57;98948.53;;;-1.72;65.44
75045;BME280;63614;56.026;35.960;2023-12-28T10:32:23;98950.59;;;-1.66;65.39
75045;BME280;63614;56.026;35.960;2023-12-28T10:34:54;98946.22;;;-1.75;65.87
75045;BME280;63614;56.026;35.960;2023-12-28T10:37:21;98949.56;;;-1.74;65.71
75045;BME280;63614;56.026;35.960;2023-12-28T10:39:48;98941.81;;;-1.84;65.79
75045;BME280;63614;56.026;35.960;2023-12-28T10:42:41;98941.81;;;-1.84;66.00
75045;BME280;63614;56.026;35.960;2023-12-28T10:45:10;98936.88;;;-1.97;66.12
75045;BME280;63614;56.026;35.960;2023-12-28T10:47:43;98948.47;;;-2.04;66.34
75045;BME280;63614;56.026;35.960;2023-12-28T10:50:14;98949.72;;;-1.98;66.54
75045;BME280;63614;56.026;35.960;2023-12-28T10:52:45;98952.47;;;-1.90;66.46
75045;BME280;63614;56.026;35.960;2023-12-28T10:58:03;98958.53;;;-1.91;66.38
75045;BME280;63614;56.026;35.960;2023-12-28T11:00:33;98956.53;;;-1.88;66.06
75045;BME280;63614;56.026;35.960;2023-12-28T11:03:03;98946.25;;;-1.97;66.32
75045;BME280;63614;56.026;35.960;2023-12-28T11:05:32;98957.38;;;-1.98;66.61
75045;BME280;63614;56.026;35.960;2023-12-28T11:07:59;98958.66;;;-2.04;66.75
75045;BME280;63614;56.026;35.960;2023-12-28T11:10:26;98960.63;;;-2.08;66.53
75045;BME280;63614;56.026;35.960;2023-12-28T11:12:56;98961.44;;;-2.07;66.82
75045;BME280;63614;56.026;35.960;2023-12-28T11:15:22;98965.13;;;-2.11;66.85
75045;BME280;63614;56.026;35.960;2023-12-28T11:17:49;98966.75;;;-1.99;67.12
75045;BME280;63614;56.026;35.960;2023-12-28T11:20:15;98968.38;;;-1.87;67.10
75045;BME280;63614;56.026;35.960;2023-12-28T11:22:42;98956.97;;;-1.71;66.49
75045;BME280;63614;56.026;35.960;2023-12-28T11:25:16;98972.59;;;-1.65;66.64
75045;BME280;63614;56.026;35.960;2023-12-28T11:27:47;98971.53;;;-1.51;66.05
75045;BME280;63614;56.026;35.960;2023-12-28T11:30:13;98973.59;;;-1.44;66.28
75045;BME280;63614;56.026;35.960;2023-12-28T11:32:43;98971.31;;;-1.59;66.54
75045;BME280;63614;56.026;35.960;2023-12-28T11:35:12;98962.41;;;-1.65;66.86
75045;BME280;63614;56.026;35.960;2023-12-28T11:37:46;98958.97;;;-1.86;67.29
75045;BME280;63614;56.026;35.960;2023-12-28T11:40:13;98962.13;;;-1.94;67.79
75045;BME280;63614;56.026;35.960;2023-12-28T11:45:17;98956.44;;;-1.97;68.23
75045;BME280;63614;56.026;35.960;2023-12-28T11:47:44;98971.84;;;-1.99;68.35
75045;BME280;63614;56.026;35.960;2023-12-28T11:50:10;98967.53;;;-1.87;68.43
75045;BME280;63614;56.026;35.960;2023-12-28T11:52:37;98963.84;;;-1.83;67.54
75045;BME280;63614;56.026;35.960;2023-12-28T11:55:03;98960.09;;;-1.79;67.70
75045;BME280;63614;56.026;35.960;2023-12-28T11:57:31;98965.91;;;-1.77;67.64
75045;BME280;63614;56.026;35.960;2023-12-28T11:59:59;98956.63;;;-1.78;67.29
75045;BME280;63614;56.026;35.960;2023-12-28T12:02:26;98963.81;;;-1.72;67.05
75045;BME280;63614;56.026;35.960;2023-12-28T12:04:55;98961.50;;;-1.75;67.05
75045;BME280;63614;56.026;35.960;2023-12-28T12:07:24;98964.22;;;-1.55;66.87
75045;BME280;63614;56.026;35.960;2023-12-28T12:09:58;98967.03;;;-1.58;66.73
75045;BME280;63614;56.026;35.960;2023-12-28T12:12:25;98971.53;;;-1.51;66.50
75045;BME280;63614;56.026;35.960;2023-12-28T12:14:52;98972.44;;;-1.40;66.26
75045;BME280;63614;56.026;35.960;2023-12-28T12:17:18;98962.88;;;-1.27;65.86
75045;BME280;63614;56.026;35.960;2023-12-28T12:19:45;98966.03;;;-1.35;65.73
75045;BME280;63614;56.026;35.960;2023-12-28T12:22:16;98952.88;;;-1.51;66.92
75045;BME280;63614;56.026;35.960;2023-12-28T12:24:44;98960.69;;;-1.32;66.54
75045;BME280;63614;56.026;35.960;2023-12-28T12:27:10;98967.38;;;-1.19;66.26
75045;BME280;63614;56.026;35.960;2023-12-28T12:29:36;98959.28;;;-1.24;65.63
75045;BME280;63614;56.026;35.960;2023-12-28T12:32:02;98968.03;;;-1.17;66.09
75045;BME280;63614;56.026;35.960;2023-12-28T12:34:28;98962.94;;;-1.17;65.92
75045;BME280;63614;56.026;35.960;2023-12-28T12:36:55;98965.75;;;-1.20;66.60
75045;BME280;63614;56.026;35.960;2023-12-28T12:39:23;98968.47;;;-1.12;67.15
75045;BME280;63614;56.026;35.960;2023-12-28T12:41:50;98965.75;;;-1.20;67.66
75045;BME280;63614;56.026;35.960;2023-12-28T12:44:19;98967.75;;;-1.03;68.35
75045;BME280;63614;56.026;35.960;2023-12-28T12:46:46;98973.47;;;-1.11;68.12
75045;BME280;63614;56.026;35.960;2023-12-28T12:49:12;98970.59;;;-1.17;68.54
75045;BME280;63614;56.026;35.960;2023-12-28T12:51:38;98968.59;;;-1.14;68.65
75045;BME280;63614;56.026;35.960;2023-12-28T12:54:07;98965.97;;;-1.23;69.43
75045;BME280;63614;56.026;35.960;2023-12-28T12:56:34;98973.34;;;-1.09;68.87